Time;durP1;ratioP1;P1;durP2;ratioP2;P2;SDS_P1;SDS_P2;PMS_P1;PMS_P2;Temp;Humidity;BMP_temperature;BMP_pressure;BME280_temperature;BME280_humidity;BME280_pressure;Samples;Min_cycle;Max_cycle;Signal;HPM_P1;HPM_P2
2022/07/26 00:00:56;;;;;;;;;;;;;;;19.73;100.00;101291.25;5052038;28;20348;-56
2022/07/26 00:03:21;;;;;;;;;;;;;;;19.72;100.00;101290.44;5053206;28;20403;-57
2022/07/26 00:05:46;;;;;;;;;;;;;;;19.68;100.00;101302.38;5053143;28;19983;-57
2022/07/26 00:08:12;;;;;;;;;;;;;;;19.64;100.00;101295.50;5053560;28;19916;-57
2022/07/26 00:10:38;;;;;;;;;;;;;;;19.62;100.00;101298.31;5052385;28;19921;-57
2022/07/26 00:13:03;;;;;;;;;;;;;;;19.59;100.00;101305.75;5053168;28;19956;-57
2022/07/26 00:15:29;;;;;;;;;;;;;;;19.53;100.00;101299.03;5053071;28;19970;-57
2022/07/26 00:17:54;;;;;;;;;;;;;;;19.50;100.00;101301.91;5053099;28;20425;-58
2022/07/26 00:20:19;;;;;;;;;;;;;;;19.45;100.00;101315.72;5018587;28;20284;-57
2022/07/26 00:22:44;;;;;;;;;;;;;;;19.40;100.00;101311.66;5053160;28;20338;-56
2022/07/26 00:25:10;;;;;;;;;;;;;;;19.37;100.00;101314.56;5052942;28;19924;-57
2022/07/26 00:27:35;;;;;;;;;;;;;;;19.34;100.00;101315.66;5035204;28;19916;-56
2022/07/26 00:30:01;;;;;;;;;;;;;;;19.33;100.00;101324.69;5035431;28;19919;-57
2022/07/26 00:32:26;;;;;;;;;;;;;;;19.31;100.00;101322.13;5034619;28;19928;-56
2022/07/26 00:34:51;;;;;;;;;;;;;;;19.30;100.00;101311.50;5052931;28;20429;-57
2022/07/26 00:37:17;;;;;;;;;;;;;;;19.26;100.00;101324.28;5034884;28;19921;-56
2022/07/26 00:39:42;;;;;;;;;;;;;;;19.25;100.00;101330.63;5052832;28;20405;-56
2022/07/26 00:42:08;;;;;;;;;;;;;;;19.24;100.00;101333.44;5051720;28;19920;-56
2022/07/26 00:44:41;;;;;;;;;;;;;;;19.22;100.00;101333.53;5052618;28;19917;-57
2022/07/26 00:47:06;;;;;;;;;;;;;;;19.18;100.00;101337.41;5052840;28;19917;-57
2022/07/26 00:49:32;;;;;;;;;;;;;;;19.13;100.00;101331.50;5052967;28;19917;-56
2022/07/26 00:51:57;;;;;;;;;;;;;;;19.10;100.00;101337.13;5034345;28;20017;-57
2022/07/26 00:54:22;;;;;;;;;;;;;;;19.07;100.00;101338.19;5052193;28;19916;-56
2022/07/26 00:56:48;;;;;;;;;;;;;;;19.07;100.00;101343.56;5049139;28;19951;-56
2022/07/26 00:59:13;;;;;;;;;;;;;;;19.03;100.00;101342.09;5042453;28;19943;-57
2022/07/26 01:01:38;;;;;;;;;;;;;;;18.99;100.00;101344.13;5014764;28;19975;-56
2022/07/26 01:04:04;;;;;;;;;;;;;;;18.98;100.00;101341.56;5051318;28;20395;-56
2022/07/26 01:06:29;;;;;;;;;;;;;;;18.96;100.00;101351.53;5034598;28;19935;-54
2022/07/26 01:08:54;;;;;;;;;;;;;;;18.91;100.00;101351.03;5052320;28;19917;-53
2022/07/26 01:11:20;;;;;;;;;;;;;;;18.88;100.00;101348.53;5052296;28;19924;-56
2022/07/26 01:13:46;;;;;;;;;;;;;;;18.84;100.00;101353.25;5051942;28;19920;-54
2022/07/26 01:16:11;;;;;;;;;;;;;;;18.79;100.00;101352.72;5051579;28;20663;-57
2022/07/26 01:18:36;;;;;;;;;;;;;;;18.73;100.00;101354.00;5052236;28;19919;-57
2022/07/26 01:21:02;;;;;;;;;;;;;;;18.68;100.00;101356.16;5052375;28;20395;-57
2022/07/26 01:23:28;;;;;;;;;;;;;;;18.60;100.00;101347.81;5051789;28;19974;-57
2022/07/26 01:25:53;;;;;;;;;;;;;;;18.51;100.00;101349.31;5051791;28;20003;-57
2022/07/26 01:28:18;;;;;;;;;;;;;;;18.43;100.00;101357.06;5052138;28;19920;-56
2022/07/26 01:30:43;;;;;;;;;;;;;;;18.37;100.00;101350.28;5034172;28;19917;-57
2022/07/26 01:33:09;;;;;;;;;;;;;;;18.29;100.00;101358.84;5034171;28;19920;-57
2022/07/26 01:35:34;;;;;;;;;;;;;;;18.23;100.00;101355.75;5032229;28;19928;-57
2022/07/26 01:37:59;;;;;;;;;;;;;;;18.18;100.00;101361.41;5051826;28;20344;-57
2022/07/26 01:40:24;;;;;;;;;;;;;;;18.16;100.00;101363.38;5052053;28;20815;-57
2022/07/26 01:42:50;;;;;;;;;;;;;;;18.14;100.00;101367.97;5051923;28;19967;-57
2022/07/26 01:45:15;;;;;;;;;;;;;;;18.12;100.00;101373.44;5033732;28;19971;-57
2022/07/26 01:47:40;;;;;;;;;;;;;;;18.09;100.00;101367.41;5051482;28;19928;-57
2022/07/26 01:50:06;;;;;;;;;;;;;;;18.08;100.00;101357.66;5034156;28;19923;-56
2022/07/26 01:52:33;;;;;;;;;;;;;;;18.07;100.00;101367.53;5051938;28;19921;-57
2022/07/26 01:54:58;;;;;;;;;;;;;;;18.06;100.00;101370.31;5051329;28;19952;-57
2022/07/26 01:57:23;;;;;;;;;;;;;;;18.01;100.00;101359.91;5051464;28;19964;-58
2022/07/26 02:00:05;;;;;;;;;;;;;;;17.99;100.00;101364.50;5050152;28;20198;-57
2022/07/26 02:02:30;;;;;;;;;;;;;;;17.99;100.00;101365.38;5033963;28;19916;-57
2022/07/26 02:04:59;;;;;;;;;;;;;;;17.98;100.00;101378.84;5033629;28;19921;-57
2022/07/26 02:07:25;;;;;;;;;;;;;;;17.96;100.00;101378.13;5051438;28;19917;-57
2022/07/26 02:09:50;;;;;;;;;;;;;;;17.95;100.00;101379.91;5051715;28;20287;-58
2022/07/26 02:12:15;;;;;;;;;;;;;;;17.97;100.00;101377.16;5033495;28;19917;-58
2022/07/26 02:14:41;;;;;;;;;;;;;;;17.97;100.00;101380.69;5051573;28;19921;-58
2022/07/26 02:17:06;;;;;;;;;;;;;;;17.98;100.00;101365.44;5047830;28;20438;-57
2022/07/26 02:19:32;;;;;;;;;;;;;;;18.00;100.00;101369.75;5051635;28;20289;-58
2022/07/26 02:21:57;;;;;;;;;;;;;;;17.98;100.00;101370.81;5036411;28;19914;-58
2022/07/26 02:24:23;;;;;;;;;;;;;;;17.97;100.00;101375.31;5042721;28;19913;-58
2022/07/26 02:26:48;;;;;;;;;;;;;;;17.94;100.00;101375.53;5021491;28;19916;-57
2022/07/26 02:29:13;;;;;;;;;;;;;;;17.88;100.00;101375.03;5050824;28;20356;-57
2022/07/26 02:31:38;;;;;;;;;;;;;;;17.79;100.00;101372.03;5051569;28;19921;-58
2022/07/26 02:34:04;;;;;;;;;;;;;;;17.73;100.00;101380.47;5017613;28;19917;-57
2022/07/26 02:36:29;;;;;;;;;;;;;;;17.67;100.00;101383.56;5042053;28;19928;-58
2022/07/26 02:38:54;;;;;;;;;;;;;;;17.64;100.00;101378.41;5036516;28;20011;-57
2022/07/26 02:41:19;;;;;;;;;;;;;;;17.61;100.00;101383.97;5054869;28;19963;-58
2022/07/26 02:43:44;;;;;;;;;;;;;;;17.56;100.00;101383.41;5054934;28;19956;-58
2022/07/26 02:46:10;;;;;;;;;;;;;;;17.52;100.00;101383.63;5037319;28;19916;-58
2022/07/26 02:48:35;;;;;;;;;;;;;;;17.47;100.00;101383.06;5054621;28;19960;-57
2022/07/26 02:51:00;;;;;;;;;;;;;;;17.44;100.00;101383.28;5033268;28;20323;-54
2022/07/26 02:53:26;;;;;;;;;;;;;;;17.40;100.00;101384.41;5040432;28;19921;-58
2022/07/26 02:55:51;;;;;;;;;;;;;;;17.38;100.00;101382.78;5043021;28;20047;-58
2022/07/26 02:58:16;;;;;;;;;;;;;;;17.34;100.00;101383.00;5041996;28;19921;-58
2022/07/26 03:00:41;;;;;;;;;;;;;;;17.33;100.00;101391.13;5054256;28;20335;-57
2022/07/26 03:03:07;;;;;;;;;;;;;;;17.29;100.00;101393.16;5046607;28;20027;-58
2022/07/26 03:05:32;;;;;;;;;;;;;;;17.25;100.00;101391.63;5034944;28;19925;-57
2022/07/26 03:07:57;;;;;;;;;;;;;;;17.21;100.00;101392.75;5017353;28;19917;-57
2022/07/26 03:10:22;;;;;;;;;;;;;;;17.21;100.00;101392.75;5054075;28;19921;-57
2022/07/26 03:12:48;;;;;;;;;;;;;;;17.20;100.00;101401.78;5054252;28;19924;-58
2022/07/26 03:15:13;;;;;;;;;;;;;;;17.20;100.00;101409.81;5036835;28;19921;-57
2022/07/26 03:17:38;;;;;;;;;;;;;;;17.18;100.00;101399.19;5054598;28;19920;-57
2022/07/26 03:20:04;;;;;;;;;;;;;;;17.19;100.00;101402.72;5053941;28;19943;-57
2022/07/26 03:22:29;;;;;;;;;;;;;;;17.17;100.00;101397.47;5036481;28;20343;-57
2022/07/26 03:24:55;;;;;;;;;;;;;;;17.14;100.00;101396.81;5053781;28;19913;-57
2022/07/26 03:27:20;;;;;;;;;;;;;;;17.11;100.00;101405.00;5045200;28;19921;-56
2022/07/26 03:29:45;;;;;;;;;;;;;;;17.07;100.00;101404.34;5040798;28;20011;-57
2022/07/26 03:32:10;;;;;;;;;;;;;;;17.06;100.00;101415.16;5054187;28;20364;-57
2022/07/26 03:34:36;;;;;;;;;;;;;;;17.06;100.00;101415.16;5036255;28;19916;-57
2022/07/26 03:37:01;;;;;;;;;;;;;;;17.03;100.00;101411.75;5050865;28;19928;-57
2022/07/26 03:39:26;;;;;;;;;;;;;;;17.06;100.00;101415.16;5035805;28;19921;-57
2022/07/26 03:41:55;;;;;;;;;;;;;;;17.08;100.00;101416.78;5053626;28;19917;-55
2022/07/26 03:44:20;;;;;;;;;;;;;;;17.10;100.00;101427.41;5053748;28;19940;-57
2022/07/26 03:46:45;;;;;;;;;;;;;;;17.10;100.00;101430.94;5053048;28;19917;-57
2022/07/26 03:49:10;;;;;;;;;;;;;;;17.09;100.00;101420.34;5053623;28;19920;-58
2022/07/26 03:51:35;;;;;;;;;;;;;;;17.09;100.00;101420.34;5034691;28;19921;-58
2022/07/26 03:54:01;;;;;;;;;;;;;;;17.13;100.00;101417.34;5053727;28;19917;-58
2022/07/26 03:56:32;;;;;;;;;;;;;;;17.20;100.00;101415.16;5053817;28;19921;-56
2022/07/26 03:58:58;;;;;;;;;;;;;;;17.26;100.00;101420.09;5053658;28;19924;-58
2022/07/26 04:01:24;;;;;;;;;;;;;;;17.26;100.00;101416.56;5053123;28;20007;-57
2022/07/26 04:03:49;;;;;;;;;;;;;;;17.23;100.00;101414.94;5035556;28;20015;-57
2022/07/26 04:06:15;;;;;;;;;;;;;;;17.19;100.00;101416.09;5053679;28;19931;-58
2022/07/26 04:08:40;;;;;;;;;;;;;;;17.16;100.00;101419.84;5053525;28;19920;-58
2022/07/26 04:11:05;;;;;;;;;;;;;;;17.13;100.00;101428.03;5035051;28;19921;-57
2022/07/26 04:13:30;;;;;;;;;;;;;;;17.12;100.00;101428.16;5052775;28;19929;-57
2022/07/26 04:15:56;;;;;;;;;;;;;;;17.10;100.00;101438.09;5053287;28;19916;-57
2022/07/26 04:18:21;;;;;;;;;;;;;;;17.10;100.00;101433.59;5053332;28;19970;-58
2022/07/26 04:20:47;;;;;;;;;;;;;;;17.14;100.00;101428.94;5052770;28;20270;-58
2022/07/26 04:23:12;;;;;;;;;;;;;;;17.17;100.00;101431.41;5034989;28;19939;-58
2022/07/26 04:25:37;;;;;;;;;;;;;;;17.19;100.00;101430.34;5053248;28;19923;-58
2022/07/26 04:28:03;;;;;;;;;;;;;;;17.23;100.00;101428.34;5018587;28;19921;-58
2022/07/26 04:30:28;;;;;;;;;;;;;;;17.29;100.00;101430.63;5053014;28;20003;-56
2022/07/26 04:32:53;;;;;;;;;;;;;;;17.37;100.00;101432.81;5034667;28;19917;-57
2022/07/26 04:35:19;;;;;;;;;;;;;;;17.48;100.00;101426.75;5052562;28;19927;-56
2022/07/26 04:37:45;;;;;;;;;;;;;;;17.61;100.00;101440.19;5052187;28;19927;-55
2022/07/26 04:40:11;;;;;;;;;;;;;;;17.60;100.00;101433.16;5052677;28;20011;-56
2022/07/26 04:42:36;;;;;;;;;;;;;;;17.55;100.00;101435.28;5052634;28;19917;-57
2022/07/26 04:45:03;;;;;;;;;;;;;;;17.49;100.00;101439.19;5052627;28;19927;-58
2022/07/26 04:47:28;;;;;;;;;;;;;;;17.42;100.00;101445.91;5034887;28;19917;-57
2022/07/26 04:49:53;;;;;;;;;;;;;;;17.36;100.00;101449.81;5052747;28;19924;-58
2022/07/26 04:52:18;;;;;;;;;;;;;;;17.15;100.00;101455.59;5051287;28;20302;-57
2022/07/26 04:54:44;;;;;;;;;;;;;;;16.97;100.00;101459.41;5045586;28;19972;-58
2022/07/26 04:57:09;;;;;;;;;;;;;;;16.83;100.00;101471.78;5033933;28;20341;-58
2022/07/26 04:59:34;;;;;;;;;;;;;;;16.75;100.00;101462.50;5052111;28;19972;-58
2022/07/26 05:01:59;;;;;;;;;;;;;;;16.67;100.00;101477.19;5052195;28;19958;-59
2022/07/26 05:04:25;;;;;;;;;;;;;;;16.65;100.00;101475.56;5034276;28;19921;-57
2022/07/26 05:06:50;;;;;;;;;;;;;;;16.59;100.00;101478.63;5052184;28;19916;-59
2022/07/26 05:09:15;;;;;;;;;;;;;;;16.55;100.00;101488.66;5051763;28;19975;-59
2022/07/26 05:11:41;;;;;;;;;;;;;;;16.53;100.00;101493.22;5051950;28;19917;-59
2022/07/26 05:14:06;;;;;;;;;;;;;;;16.42;100.00;101495.66;5051013;28;19921;-59
2022/07/26 05:16:31;;;;;;;;;;;;;;;16.39;100.00;101496.69;5051668;28;20079;-59
2022/07/26 05:18:56;;;;;;;;;;;;;;;16.24;100.00;101510.97;5013696;28;20547;-58
2022/07/26 05:21:22;;;;;;;;;;;;;;;16.16;100.00;101506.06;5033909;28;19963;-59
2022/07/26 05:23:47;;;;;;;;;;;;;;;16.11;100.00;101517.00;5033772;28;19940;-59
2022/07/26 05:26:12;;;;;;;;;;;;;;;16.16;100.00;101519.44;5051647;28;19925;-58
2022/07/26 05:28:38;;;;;;;;;;;;;;;16.19;100.00;101525.47;5048157;28;19923;-59
2022/07/26 05:31:03;;;;;;;;;;;;;;;16.21;100.00;101523.56;5048918;28;19924;-59
2022/07/26 05:33:28;;;;;;;;;;;;;;;16.29;100.00;101527.59;5052012;28;19917;-59
2022/07/26 05:35:54;;;;;;;;;;;;;;;16.31;100.00;101529.22;5051173;28;19929;-59
2022/07/26 05:38:19;;;;;;;;;;;;;;;16.36;100.00;101531.63;5033204;28;19921;-59
2022/07/26 05:40:44;;;;;;;;;;;;;;;16.33;100.00;101526.47;5051779;28;19924;-59
2022/07/26 05:43:10;;;;;;;;;;;;;;;16.34;100.00;101525.50;5034145;28;19917;-50
2022/07/26 05:45:35;;;;;;;;;;;;;;;16.37;100.00;101523.53;5051580;28;19944;-59
2022/07/26 05:48:00;;;;;;;;;;;;;;;16.41;100.00;101526.88;5032772;28;19928;-59
2022/07/26 05:50:25;;;;;;;;;;;;;;;16.44;100.00;101531.19;5020579;28;19925;-59
2022/07/26 05:52:51;;;;;;;;;;;;;;;16.54;100.00;101543.06;5046158;28;19956;-59
2022/07/26 05:55:16;;;;;;;;;;;;;;;16.54;100.00;101538.56;5051186;28;19920;-58
2022/07/26 05:57:41;;;;;;;;;;;;;;;16.57;100.00;101540.19;5051431;28;19927;-59
2022/07/26 06:00:08;;;;;;;;;;;;;;;16.57;100.00;101547.38;5051485;28;19932;-59
2022/07/26 06:02:33;;;;;;;;;;;;;;;16.47;100.00;101555.06;5051886;28;19916;-59
2022/07/26 06:04:58;;;;;;;;;;;;;;;16.53;100.00;101549.34;5051674;28;20328;-58
2022/07/26 06:07:23;;;;;;;;;;;;;;;16.55;100.00;101555.50;5051106;28;20403;-59
2022/07/26 06:09:49;;;;;;;;;;;;;;;16.61;100.00;101555.13;5050184;28;19928;-59
2022/07/26 06:12:14;;;;;;;;;;;;;;;16.71;100.00;101568.81;5036617;28;19928;-58
2022/07/26 06:14:39;;;;;;;;;;;;;;;16.73;100.00;101561.56;5048692;28;19917;-59
2022/07/26 06:17:04;;;;;;;;;;;;;;;16.80;100.00;101576.31;5055246;28;19923;-59
2022/07/26 06:19:29;;;;;;;;;;;;;;;16.80;100.00;101573.63;5037041;28;20343;-59
2022/07/26 06:21:55;;;;;;;;;;;;;;;16.85;100.00;101576.00;5054555;28;19913;-58
2022/07/26 06:24:20;;;;;;;;;;;;;;;16.90;100.00;101586.44;5054696;28;19917;-58
2022/07/26 06:26:45;;;;;;;;;;;;;;;16.94;100.00;101579.97;5050204;28;19928;-59
2022/07/26 06:29:11;;;;;;;;;;;;;;;16.99;100.00;101584.09;5057485;28;19909;-59
2022/07/26 06:31:36;;;;;;;;;;;;;;;17.11;100.00;101585.19;5030588;28;19944;-58
2022/07/26 06:34:01;;;;;;;;;;;;;;;17.28;100.00;101589.50;5053284;28;19923;-58
2022/07/26 06:36:27;;;;;;;;;;;;;;;17.39;100.00;101593.34;5039932;28;19946;-59
2022/07/26 06:38:53;;;;;;;;;;;;;;;17.61;100.00;101601.75;5055794;28;19921;-58
2022/07/26 06:41:19;;;;;;;;;;;;;;;17.75;100.00;101600.91;5054236;28;20360;-59
2022/07/26 06:43:44;;;;;;;;;;;;;;;17.75;100.00;101598.22;5054062;28;20411;-57
2022/07/26 06:46:09;;;;;;;;;;;;;;;18.06;100.00;101595.44;5054290;28;19913;-58
2022/07/26 06:48:34;;;;;;;;;;;;;;;18.33;100.00;101598.97;5054303;28;20008;-58
2022/07/26 06:50:59;;;;;;;;;;;;;;;18.41;100.00;101609.19;5053373;28;20066;-58
2022/07/26 06:53:25;;;;;;;;;;;;;;;18.61;100.00;101612.41;5047455;28;19917;-58
2022/07/26 06:55:50;;;;;;;;;;;;;;;18.73;100.00;101616.94;5043842;28;19921;-58
2022/07/26 06:58:15;;;;;;;;;;;;;;;18.89;100.00;101621.25;5054081;28;20006;-58
2022/07/26 07:00:41;;;;;;;;;;;;;;;19.11;100.00;101621.56;5049652;28;20016;-58
2022/07/26 07:03:06;;;;;;;;;;;;;;;19.21;100.00;101627.16;5036613;28;20266;-58
2022/07/26 07:05:31;;;;;;;;;;;;;;;19.24;100.00;101620.72;5036167;28;19917;-58
2022/07/26 07:07:56;;;;;;;;;;;;;;;18.93;100.00;101612.94;5036165;28;20253;-58
2022/07/26 07:10:21;;;;;;;;;;;;;;;18.61;100.00;101623.13;5054002;28;19949;-58
2022/07/26 07:12:47;;;;;;;;;;;;;;;18.14;100.00;101626.13;5035354;28;19916;-58
2022/07/26 07:15:12;;;;;;;;;;;;;;;17.76;100.00;101639.25;5053419;28;20388;-57
2022/07/26 07:17:37;;;;;;;;;;;;;;;17.56;100.00;101633.31;5030114;28;19940;-58
2022/07/26 07:20:04;;;;;;;;;;;;;;;17.71;100.00;101641.34;5036265;28;20023;-58
2022/07/26 07:22:29;;;;;;;;;;;;;;;17.75;100.00;101627.69;5053109;28;20023;-58
2022/07/26 07:24:54;;;;;;;;;;;;;;;17.80;100.00;101638.09;5053235;28;19999;-58
2022/07/26 07:27:20;;;;;;;;;;;;;;;17.85;100.00;101641.34;5053439;28;19917;-57
2022/07/26 07:29:45;;;;;;;;;;;;;;;18.24;100.00;101642.47;5035244;28;19982;-57
2022/07/26 07:32:10;;;;;;;;;;;;;;;18.60;100.00;101653.59;5053779;28;19960;-58
2022/07/26 07:34:35;;;;;;;;;;;;;;;18.76;100.00;101645.38;5053966;28;19916;-58
2022/07/26 07:37:01;;;;;;;;;;;;;;;18.79;100.00;101650.56;5053305;28;19978;-58
2022/07/26 07:39:26;;;;;;;;;;;;;;;19.02;100.00;101653.56;5054680;28;20376;-58
2022/07/26 07:41:51;;;;;;;;;;;;;;;19.20;100.00;101662.19;5032524;28;19921;-58
2022/07/26 07:44:16;;;;;;;;;;;;;;;19.06;100.00;101661.28;5034471;28;19929;-57
2022/07/26 07:46:42;;;;;;;;;;;;;;;19.39;100.00;101669.84;5034973;28;19921;-58
2022/07/26 07:49:09;;;;;;;;;;;;;;;19.57;100.00;101659.63;5032311;28;19925;-57
2022/07/26 07:51:34;;;;;;;;;;;;;;;19.30;100.00;101664.13;5049492;28;19967;-58
2022/07/26 07:53:59;;;;;;;;;;;;;;;19.22;100.00;101655.75;5053457;28;19916;-57
2022/07/26 07:56:25;;;;;;;;;;;;;;;19.38;100.00;101662.72;5052409;28;19928;-58
2022/07/26 07:58:50;;;;;;;;;;;;;;;19.46;100.00;101661.25;5051248;28;20384;-58
2022/07/26 08:01:15;;;;;;;;;;;;;;;19.11;100.00;101660.97;5049045;28;19928;-58
2022/07/26 08:03:41;;;;;;;;;;;;;;;18.80;100.00;101660.34;5030939;28;19923;-58
2022/07/26 08:06:07;;;;;;;;;;;;;;;18.67;100.00;101671.88;5048115;28;19924;-57
2022/07/26 08:08:32;;;;;;;;;;;;;;;18.34;100.00;101669.56;5035158;28;19920;-57
2022/07/26 08:10:58;;;;;;;;;;;;;;;18.20;100.00;101666.91;5053545;28;19929;-58
2022/07/26 08:13:23;;;;;;;;;;;;;;;18.10;100.00;101661.28;5043929;28;20381;-58
2022/07/26 08:15:51;;;;;;;;;;;;;;;18.13;100.00;101666.44;5051145;28;19970;-58
2022/07/26 08:18:17;;;;;;;;;;;;;;;18.31;100.00;101675.13;5051417;28;20008;-58
2022/07/26 08:20:42;;;;;;;;;;;;;;;18.45;100.00;101683.16;5044694;28;20007;-58
2022/07/26 08:23:07;;;;;;;;;;;;;;;18.80;100.00;101681.81;5051746;28;19924;-56
2022/07/26 08:25:32;;;;;;;;;;;;;;;19.18;100.00;101683.75;5018036;28;19925;-57
2022/07/26 08:27:58;;;;;;;;;;;;;;;19.60;100.00;101686.28;5052329;28;19974;-57
2022/07/26 08:30:23;;;;;;;;;;;;;;;19.81;97.93;101684.75;5052465;28;20331;-57
2022/07/26 08:32:48;;;;;;;;;;;;;;;20.24;100.00;101690.75;5052227;28;19939;-58
2022/07/26 08:35:13;;;;;;;;;;;;;;;20.55;94.12;101697.47;5034686;28;19916;-57
2022/07/26 08:37:39;;;;;;;;;;;;;;;20.68;91.84;101700.09;5033498;28;19927;-57
2022/07/26 08:40:04;;;;;;;;;;;;;;;20.47;93.58;101705.22;5050703;28;19924;-58
2022/07/26 08:42:30;;;;;;;;;;;;;;;20.30;94.08;101714.53;5049690;28;19917;-59
2022/07/26 08:44:56;;;;;;;;;;;;;;;19.96;96.61;101709.75;5051718;28;19917;-57
2022/07/26 08:47:21;;;;;;;;;;;;;;;19.79;100.00;101712.72;5050067;28;19944;-57
2022/07/26 08:49:46;;;;;;;;;;;;;;;19.35;96.09;101724.69;5034690;28;19962;-57
2022/07/26 08:52:13;;;;;;;;;;;;;;;19.24;100.00;101726.28;5052014;28;19938;-57
2022/07/26 08:54:45;;;;;;;;;;;;;;;19.14;97.73;101722.50;5033480;28;19924;-56
2022/07/26 08:57:10;;;;;;;;;;;;;;;19.15;97.29;101729.59;5051767;28;20124;-57
2022/07/26 08:59:35;;;;;;;;;;;;;;;19.24;100.00;101723.59;5033788;28;19921;-57
2022/07/26 09:02:02;;;;;;;;;;;;;;;19.43;100.00;101719.69;5034213;28;19917;-57
2022/07/26 09:04:34;;;;;;;;;;;;;;;19.49;100.00;101730.00;5051549;28;19920;-58
2022/07/26 09:07:14;;;;;;;;;;;;;;;19.81;100.00;101735.81;5051165;28;19919;-58
2022/07/26 09:09:51;;;;;;;;;;;;;;;19.99;95.41;101735.53;5023597;28;19916;-57
2022/07/26 09:12:18;;;;;;;;;;;;;;;19.85;94.45;101741.88;5051932;28;19927;-58
2022/07/26 09:14:45;;;;;;;;;;;;;;;20.22;94.98;101739.28;5051137;28;19929;-57
2022/07/26 09:17:11;;;;;;;;;;;;;;;21.63;86.17;101744.25;5045772;28;20339;-56
2022/07/26 09:19:36;;;;;;;;;;;;;;;21.50;87.47;101745.16;5033075;28;20409;-57
2022/07/26 09:22:06;;;;;;;;;;;;;;;21.25;84.99;101754.25;5051304;28;20371;-57
2022/07/26 09:24:35;;;;;;;;;;;;;;;20.97;88.14;101752.75;5033133;28;20437;-58
2022/07/26 09:27:02;;;;;;;;;;;;;;;21.83;85.34;101756.13;5050376;28;20368;-57
2022/07/26 09:29:28;;;;;;;;;;;;;;;22.55;81.24;101757.66;5050710;28;20063;-57
2022/07/26 09:32:07;;;;;;;;;;;;;;;22.33;85.26;101769.28;5051706;28;19921;-58
2022/07/26 09:34:32;;;;;;;;;;;;;;;21.80;84.42;101786.06;5050845;28;19995;-57
2022/07/26 09:36:58;;;;;;;;;;;;;;;20.59;90.56;101790.44;5051067;28;20011;-57
2022/07/26 09:39:23;;;;;;;;;;;;;;;19.84;97.73;101785.84;5030183;28;19972;-57
2022/07/26 09:41:48;;;;;;;;;;;;;;;19.09;100.00;101781.91;5047809;28;19921;-57
2022/07/26 09:44:21;;;;;;;;;;;;;;;18.79;100.00;101790.94;5053052;28;20323;-57
2022/07/26 09:46:53;;;;;;;;;;;;;;;19.00;100.00;101790.53;5055530;28;19920;-58
2022/07/26 09:49:19;;;;;;;;;;;;;;;19.22;100.00;101790.00;5055339;28;19917;-58
2022/07/26 09:51:46;;;;;;;;;;;;;;;19.45;100.00;101788.44;5042038;28;19928;-58
2022/07/26 09:54:18;;;;;;;;;;;;;;;19.76;100.00;101786.34;5050916;28;19925;-58
2022/07/26 09:56:44;;;;;;;;;;;;;;;19.92;97.35;101796.06;5048003;28;19924;-58
2022/07/26 09:59:10;;;;;;;;;;;;;;;20.08;94.80;101799.41;5044924;28;19923;-58
2022/07/26 10:01:36;;;;;;;;;;;;;;;20.07;95.02;101797.69;5052156;28;20392;-58
2022/07/26 10:04:01;;;;;;;;;;;;;;;19.81;94.65;101803.03;5036688;28;19917;-57
2022/07/26 10:06:26;;;;;;;;;;;;;;;19.61;91.71;101806.22;5054940;28;19951;-58
2022/07/26 10:08:51;;;;;;;;;;;;;;;19.45;92.66;101803.69;5055325;28;19917;-57
2022/07/26 10:11:17;;;;;;;;;;;;;;;19.38;92.04;101800.56;5054996;28;19952;-58
2022/07/26 10:13:42;;;;;;;;;;;;;;;19.59;90.87;101809.00;5054708;28;19919;-58
2022/07/26 10:16:27;;;;;;;;;;;;;;;19.57;90.20;101810.06;5052465;28;19921;-57
2022/07/26 10:18:52;;;;;;;;;;;;;;;19.67;90.29;101808.47;5050786;28;19971;-58
2022/07/26 10:21:17;;;;;;;;;;;;;;;19.99;89.48;101808.13;5033400;28;19960;-58
2022/07/26 10:23:45;;;;;;;;;;;;;;;20.23;88.30;101807.34;5054734;28;19917;-58
2022/07/26 10:26:30;;;;;;;;;;;;;;;20.67;85.66;101805.19;5048697;28;19993;-57
2022/07/26 10:29:15;;;;;;;;;;;;;;;20.88;85.47;101810.84;5052360;28;20360;-58
2022/07/26 10:31:40;;;;;;;;;;;;;;;20.71;83.76;101814.78;5048098;28;19965;-57
2022/07/26 10:34:06;;;;;;;;;;;;;;;21.16;83.75;101822.28;5036996;28;20015;-58
2022/07/26 10:36:33;;;;;;;;;;;;;;;22.15;81.84;101812.97;5053482;28;19921;-57
2022/07/26 10:39:05;;;;;;;;;;;;;;;22.86;78.26;101818.09;5054039;28;20344;-55
2022/07/26 10:41:31;;;;;;;;;;;;;;;22.65;75.67;101820.72;5054507;28;20003;-57
2022/07/26 10:44:11;;;;;;;;;;;;;;;22.50;72.86;101830.91;5054025;28;20011;-57
2022/07/26 10:46:53;;;;;;;;;;;;;;;22.68;75.99;101833.13;5054546;28;19914;-56
2022/07/26 10:49:18;;;;;;;;;;;;;;;23.02;75.04;101825.81;5037298;28;19924;-57
2022/07/26 10:51:43;;;;;;;;;;;;;;;23.43;72.45;101825.22;5019744;28;19917;-56
2022/07/26 10:54:10;;;;;;;;;;;;;;;24.00;65.86;101831.22;5046019;28;19921;-57
2022/07/26 10:56:36;;;;;;;;;;;;;;;24.22;65.87;101824.78;5056495;28;19921;-57
2022/07/26 10:59:02;;;;;;;;;;;;;;;23.68;66.57;101833.00;5029814;28;20274;-57
2022/07/26 11:01:38;;;;;;;;;;;;;;;23.65;66.98;101822.41;5054371;28;19925;-57
2022/07/26 11:04:04;;;;;;;;;;;;;;;23.15;65.77;101824.84;5053116;28;19917;-57
2022/07/26 11:06:29;;;;;;;;;;;;;;;23.09;74.46;101820.75;5035823;28;20347;-58
2022/07/26 11:08:55;;;;;;;;;;;;;;;23.66;66.31;101823.28;5054099;28;20368;-48
2022/07/26 11:11:30;;;;;;;;;;;;;;;24.10;62.52;101824.03;5054037;28;20442;-58
2022/07/26 11:14:05;;;;;;;;;;;;;;;23.67;63.63;101828.56;5052637;28;19960;-48
2022/07/26 11:16:42;;;;;;;;;;;;;;;23.68;62.69;101834.81;5052813;28;19924;-51
2022/07/26 11:19:15;;;;;;;;;;;;;;;23.22;60.73;101844.94;5053388;28;19939;-58
2022/07/26 11:21:40;;;;;;;;;;;;;;;22.50;63.20;101846.25;5053322;28;19921;-58
2022/07/26 11:24:06;;;;;;;;;;;;;;;21.76;66.03;101845.59;5050607;28;20289;-58
2022/07/26 11:26:38;;;;;;;;;;;;;;;21.78;69.11;101848.19;5053558;28;20392;-58
2022/07/26 11:29:04;;;;;;;;;;;;;;;21.71;67.67;101849.63;5052646;28;20360;-57
2022/07/26 11:31:32;;;;;;;;;;;;;;;21.79;66.65;101843.63;5053267;28;19920;-58
2022/07/26 11:33:57;;;;;;;;;;;;;;;22.31;66.53;101861.16;5053309;28;20031;-58
2022/07/26 11:36:34;;;;;;;;;;;;;;;21.97;65.26;101852.13;5035121;28;20007;-58
2022/07/26 11:39:01;;;;;;;;;;;;;;;22.04;64.77;101856.94;5053135;28;20015;-58
2022/07/26 11:41:27;;;;;;;;;;;;;;;22.51;62.85;101853.38;5035534;28;19931;-58
2022/07/26 11:43:53;;;;;;;;;;;;;;;23.03;62.53;101865.34;5052650;28;20368;-58
2022/07/26 11:46:19;;;;;;;;;;;;;;;22.70;59.64;101867.09;5051790;28;19963;-58
2022/07/26 11:48:48;;;;;;;;;;;;;;;22.58;58.96;101859.97;5052847;28;19923;-58
2022/07/26 11:51:15;;;;;;;;;;;;;;;22.40;60.82;101862.31;5053935;28;19916;-58
2022/07/26 11:53:40;;;;;;;;;;;;;;;22.35;62.04;101867.19;5034123;28;19917;-58
2022/07/26 11:56:32;;;;;;;;;;;;;;;22.39;61.20;101866.84;5031021;28;19929;-57
2022/07/26 11:58:58;;;;;;;;;;;;;;;22.50;60.84;101870.53;5046150;28;19929;-58
2022/07/26 12:01:23;;;;;;;;;;;;;;;22.97;61.78;101870.38;5051115;28;20396;-58
2022/07/26 12:03:52;;;;;;;;;;;;;;;23.69;55.74;101872.53;5050684;28;20217;-57
2022/07/26 12:06:18;;;;;;;;;;;;;;;23.61;55.24;101868.75;5050500;28;19913;-58
2022/07/26 12:08:45;;;;;;;;;;;;;;;23.46;56.25;101879.03;5034469;28;19924;-56
2022/07/26 12:11:10;;;;;;;;;;;;;;;23.38;56.34;101868.88;5051900;28;19916;-58
2022/07/26 12:13:52;;;;;;;;;;;;;;;23.16;56.27;101867.94;5052507;28;19920;-57
2022/07/26 12:16:33;;;;;;;;;;;;;;;22.88;57.85;101867.47;5052466;28;19917;-58
2022/07/26 12:18:58;;;;;;;;;;;;;;;22.57;58.36;101878.03;5054265;28;20378;-58
2022/07/26 12:21:36;;;;;;;;;;;;;;;22.39;58.55;101883.03;5051978;28;19924;-58
2022/07/26 12:24:01;;;;;;;;;;;;;;;22.16;59.19;101889.34;5052155;28;20297;-57
2022/07/26 12:26:27;;;;;;;;;;;;;;;22.56;58.41;101881.69;5052465;28;20089;-58